createdAt,value
2022-09-02T00:01:00.991Z,99898.30
2022-09-02T00:04:05.577Z,99892.54
2022-09-02T00:07:07.440Z,99895.11
2022-09-02T00:10:09.564Z,99899.44
2022-09-02T00:13:14.851Z,99895.27
2022-09-02T00:16:17.503Z,99896.59
2022-09-02T00:19:24.590Z,99900.86
2022-09-02T00:22:26.628Z,99902.29
2022-09-02T00:25:28.355Z,99903.50
2022-09-02T00:28:31.012Z,99909.26
2022-09-02T00:31:33.960Z,99907.02
2022-09-02T00:34:35.715Z,99905.63
2022-09-02T00:37:38.772Z,99897.23
2022-09-02T00:40:45.719Z,99898.51
2022-09-02T00:43:59.978Z,99897.30
2022-09-02T00:47:02.026Z,99889.18
2022-09-02T00:50:08.462Z,99883.70
2022-09-02T00:53:11.758Z,99883.64
2022-09-02T00:56:20.212Z,99891.15
2022-09-02T01:00:09.040Z,99887.41
2022-09-02T01:03:13.960Z,99886.44
2022-09-02T01:06:21.977Z,99886.91
2022-09-02T01:09:23.820Z,99885.48
2022-09-02T01:12:26.581Z,99882.79
2022-09-02T01:15:31.294Z,99885.65
2022-09-02T01:18:33.312Z,99884.43
2022-09-02T01:21:35.125Z,99880.77
2022-09-02T01:24:36.822Z,99885.96
2022-09-02T01:27:39.021Z,99886.67
2022-09-02T01:30:44.759Z,99886.89
2022-09-02T01:33:46.643Z,99886.98
2022-09-02T01:36:49.238Z,99886.97
2022-09-02T01:39:52.517Z,99890.58
2022-09-02T01:43:01.209Z,99890.51
2022-09-02T01:46:03.190Z,99892.23
2022-09-02T01:49:05.102Z,99891.77
2022-09-02T01:52:07.497Z,99894.23
2022-09-02T01:55:09.583Z,99891.75
2022-09-02T01:58:11.617Z,99892.91
2022-09-02T02:01:13.657Z,99893.49
2022-09-02T02:04:16.826Z,99893.04
2022-09-02T02:07:20.052Z,99899.63
2022-09-02T02:10:22.048Z,99899.03
2022-09-02T02:13:23.972Z,99895.89
2022-09-02T02:16:25.949Z,99892.64
2022-09-02T02:19:28.185Z,99892.13
2022-09-02T02:22:29.856Z,99894.23
2022-09-02T02:25:31.691Z,99890.56
2022-09-02T02:28:33.520Z,99888.71
2022-09-02T02:31:35.588Z,99887.70
2022-09-02T02:34:37.713Z,99890.23
2022-09-02T02:37:39.693Z,99890.63
2022-09-02T02:40:41.928Z,99885.85
2022-09-02T02:43:43.971Z,99883.96
2022-09-02T02:46:45.765Z,99885.10
2022-09-02T02:49:47.708Z,99884.23
2022-09-02T02:52:50.447Z,99881.08
2022-09-02T02:55:52.212Z,99879.16
2022-09-02T02:58:53.921Z,99878.10
2022-09-02T03:01:56.047Z,99875.42
2022-09-02T03:04:58.123Z,99873.49
2022-09-02T03:07:59.994Z,99877.40
2022-09-02T03:11:01.973Z,99875.78
2022-09-02T03:14:05.230Z,99879.96
2022-09-02T03:17:07.197Z,99879.89
2022-09-02T03:20:09.428Z,99880.36
2022-09-02T03:23:13.271Z,99881.13
2022-09-02T03:26:19.967Z,99881.79
2022-09-02T03:29:22.186Z,99883.05
2022-09-02T03:32:24.125Z,99882.92
2022-09-02T03:35:30.977Z,99882.18
2022-09-02T03:38:32.952Z,99883.63
2022-09-02T03:41:35.411Z,99883.98
2022-09-02T03:44:37.182Z,99888.95
2022-09-02T03:47:44.125Z,99888.55
2022-09-02T03:50:47.455Z,99887.64
2022-09-02T03:53:49.761Z,99891.01
2022-09-02T03:56:51.997Z,99895.24
2022-09-02T03:59:54.425Z,99896.84
2022-09-02T04:02:56.369Z,99898.31
2022-09-02T04:05:58.589Z,99898.27
2022-09-02T04:09:01.127Z,99903.52
2022-09-02T04:12:05.246Z,99902.88
2022-09-02T04:15:08.820Z,99905.23
2022-09-02T04:18:11.964Z,99909.09
2022-09-02T04:21:14.254Z,99914.64
2022-09-02T04:24:16.092Z,99917.73
2022-09-02T04:27:17.937Z,99917.15
2022-09-02T04:30:20.470Z,99919.41
2022-09-02T04:33:22.333Z,99919.85
2022-09-02T04:36:25.192Z,99920.16
2022-09-02T04:39:30.867Z,99927.92
2022-09-02T04:42:34.253Z,99922.33
2022-09-02T04:45:38.981Z,99921.83
2022-09-02T04:48:44.878Z,99919.11
2022-09-02T04:51:47.354Z,99923.36
2022-09-02T04:54:49.147Z,99924.92
2022-09-02T04:57:51.155Z,99927.02
2022-09-02T05:00:52.874Z,99920.40
2022-09-02T05:03:55.130Z,99926.11
2022-09-02T05:06:58.304Z,99925.81
2022-09-02T05:10:00.397Z,99927.27
2022-09-02T05:13:02.190Z,99922.69
2022-09-02T05:16:04.005Z,99920.23
2022-09-02T05:19:09.706Z,99920.80
2022-09-02T05:22:11.691Z,99914.01
2022-09-02T05:25:13.483Z,99911.90
2022-09-02T05:28:16.662Z,99911.55
2022-09-02T05:31:21.024Z,99910.83
2022-09-02T05:34:23.078Z,99912.98
2022-09-02T05:37:25.436Z,99911.02
2022-09-02T05:40:28.880Z,99907.38
2022-09-02T05:43:30.896Z,99905.70
2022-09-02T05:46:32.887Z,99906.35
2022-09-02T05:49:34.823Z,99908.30
2022-09-02T05:52:36.715Z,99904.30
2022-09-02T05:55:38.597Z,99902.98
2022-09-02T05:58:40.422Z,99904.73
2022-09-02T06:01:42.847Z,99904.63
2022-09-02T06:04:48.475Z,99906.79
2022-09-02T06:07:50.249Z,99907.41
2022-09-02T06:10:51.939Z,99903.89
2022-09-02T06:13:55.013Z,99902.92
2022-09-02T06:16:57.738Z,99904.71
2022-09-02T06:19:59.598Z,99901.69
2022-09-02T06:23:01.555Z,99899.42
2022-09-02T06:26:03.290Z,99903.58
2022-09-02T06:29:05.990Z,99904.95
2022-09-02T06:32:07.812Z,99907.72
2022-09-02T06:35:10.879Z,99911.77
2022-09-02T06:38:14.420Z,99912.70
2022-09-02T06:41:23.467Z,99918.61
2022-09-02T06:44:25.161Z,99918.95
2022-09-02T06:47:27.030Z,99922.69
2022-09-02T06:50:28.797Z,99917.90
2022-09-02T06:53:30.687Z,99918.80
2022-09-02T06:56:33.541Z,99920.31
2022-09-02T06:59:36.584Z,99918.81
2022-09-02T07:02:38.658Z,99920.12
2022-09-02T07:05:40.683Z,99917.44
2022-09-02T07:08:43.448Z,99916.04
2022-09-02T07:11:48.755Z,99914.09
2022-09-02T07:14:50.990Z,99911.08
2022-09-02T07:17:54.203Z,99906.68
2022-09-02T07:20:56.356Z,99911.89
2022-09-02T07:23:59.665Z,99908.34
2022-09-02T07:27:01.554Z,99907.66
2022-09-02T07:30:05.193Z,99907.70
2022-09-02T07:33:07.168Z,99908.17
2022-09-02T07:36:12.601Z,99906.97
2022-09-02T07:39:16.046Z,99903.88
2022-09-02T07:42:19.656Z,99899.77
2022-09-02T07:45:21.968Z,99903.96
2022-09-02T07:48:24.490Z,99904.10
2022-09-02T07:51:31.044Z,99900.69
2022-09-02T07:54:35.025Z,99907.08
2022-09-02T07:57:37.165Z,99899.42
2022-09-02T08:00:39.068Z,99897.63
2022-09-02T08:03:44.365Z,99891.80
2022-09-02T08:06:46.569Z,99890.63
2022-09-02T08:09:48.487Z,99898.39
2022-09-02T08:12:51.415Z,99895.44
2022-09-02T08:15:54.454Z,99895.33
2022-09-02T08:18:56.220Z,99893.27
2022-09-02T08:22:08.688Z,99889.22
2022-09-02T08:25:11.254Z,99887.46
2022-09-02T08:28:14.813Z,99888.41
2022-09-02T08:31:16.746Z,99886.67
2022-09-02T08:34:18.687Z,99883.70
2022-09-02T08:37:20.354Z,99883.54
2022-09-02T08:40:25.669Z,99882.99
2022-09-02T08:43:40.570Z,99876.98
2022-09-02T08:46:42.839Z,99878.61
2022-09-02T08:49:48.688Z,99869.80
2022-09-02T08:53:16.306Z,99870.23
2022-09-02T08:56:19.205Z,99870.73
2022-09-02T08:59:23.212Z,99867.14
2022-09-02T09:02:47.278Z,99863.17
2022-09-02T09:06:01.738Z,99855.57
2022-09-02T09:09:31.899Z,99855.42
2022-09-02T09:12:33.640Z,99854.66
2022-09-02T09:16:04.343Z,99853.61
2022-09-02T09:19:18.076Z,99856.27
2022-09-02T09:22:22.440Z,99853.15
2022-09-02T09:25:29.783Z,99850.10
2022-09-02T09:28:31.784Z,99844.00
2022-09-02T09:31:35.750Z,99846.13
2022-09-02T09:34:53.086Z,99849.23
2022-09-02T09:37:55.972Z,99842.84
2022-09-02T09:41:14.299Z,99833.33
2022-09-02T09:44:34.051Z,99831.16
2022-09-02T09:47:35.706Z,99835.54
2022-09-02T09:50:38.088Z,99837.17
2022-09-02T09:53:40.720Z,99828.81
2022-09-02T09:56:42.560Z,99815.80
2022-09-02T09:59:47.749Z,99828.06
2022-09-02T10:02:52.369Z,99823.09
2022-09-02T10:05:57.076Z,99819.23
2022-09-02T10:09:04.961Z,99816.81
2022-09-02T10:12:12.492Z,99824.95
2022-09-02T10:15:14.330Z,99817.09
2022-09-02T10:18:37.967Z,99812.89
2022-09-02T10:22:07.734Z,99817.77
2022-09-02T10:25:25.754Z,99817.53
2022-09-02T10:28:31.077Z,99813.33
2022-09-02T10:32:06.988Z,99806.80
2022-09-02T10:35:27.613Z,99809.71
2022-09-02T10:38:37.438Z,99804.85
2022-09-02T10:45:25.106Z,99796.42
2022-09-02T10:48:54.623Z,99795.63
2022-09-02T10:52:33.171Z,99794.30
2022-09-02T10:55:59.652Z,99789.66
2022-09-02T10:59:10.754Z,99791.74
2022-09-02T11:02:23.804Z,99792.30
2022-09-02T11:05:35.242Z,99788.00
2022-09-02T11:08:50.947Z,99790.82
2022-09-02T11:12:04.517Z,99791.84
2022-09-02T11:15:18.002Z,99791.48
2022-09-02T11:18:26.729Z,99787.23
2022-09-02T11:21:37.376Z,99781.74
2022-09-02T11:24:50.000Z,99782.22
2022-09-02T11:28:26.185Z,99780.40
2022-09-02T11:31:50.169Z,99783.95
2022-09-02T11:34:55.282Z,99780.24
2022-09-02T11:38:03.645Z,99776.23
2022-09-02T11:41:36.654Z,99771.58
2022-09-02T11:45:02.632Z,99767.73
2022-09-02T11:48:10.129Z,99761.98
2022-09-02T11:51:39.664Z,99752.03
2022-09-02T11:54:43.992Z,99751.90
2022-09-02T11:57:54.945Z,99755.83
2022-09-02T12:00:58.446Z,99758.30
2022-09-02T12:04:48.415Z,99757.05
2022-09-02T12:07:29.738Z,99760.63
2022-09-02T12:10:47.820Z,99753.29
2022-09-02T12:17:09.160Z,99748.73
2022-09-02T12:20:31.344Z,99747.04
2022-09-02T12:23:52.682Z,99741.52
2022-09-02T12:26:54.437Z,99741.94
2022-09-02T12:29:57.124Z,99741.05
2022-09-02T12:33:13.541Z,99745.71
2022-09-02T12:36:37.459Z,99742.05
2022-09-02T12:39:39.090Z,99738.50
2022-09-02T12:42:41.949Z,99731.39
2022-09-02T12:45:48.545Z,99726.05
2022-09-02T12:49:01.233Z,99722.39
2022-09-02T12:52:06.870Z,99721.02
2022-09-02T12:55:29.630Z,99715.17
2022-09-02T12:58:46.391Z,99717.05
2022-09-02T13:05:29.718Z,99714.60
2022-09-02T13:08:46.675Z,99709.45
2022-09-02T13:12:09.798Z,99705.17
2022-09-02T13:15:23.820Z,99708.98
2022-09-02T13:18:44.472Z,99707.13
2022-09-02T13:21:48.393Z,99706.09
2022-09-02T13:25:18.976Z,99704.41
2022-09-02T13:28:45.329Z,99703.38
2022-09-02T13:32:01.190Z,99694.79
2022-09-02T13:35:06.297Z,99695.39
2022-09-02T13:41:32.742Z,99695.43
2022-09-02T13:44:35.028Z,99690.09
2022-09-02T13:47:37.234Z,99688.07
2022-09-02T13:50:43.694Z,99688.56
2022-09-02T13:57:12.503Z,99686.36
2022-09-02T14:00:17.407Z,99685.88
2022-09-02T14:03:22.438Z,99681.87
2022-09-02T14:06:36.636Z,99675.72
2022-09-02T14:09:39.494Z,99678.19
2022-09-02T14:12:42.259Z,99675.95
2022-09-02T14:15:44.310Z,99675.63
2022-09-02T14:19:14.565Z,99675.27
2022-09-02T14:22:26.199Z,99677.95
2022-09-02T14:25:32.541Z,99680.11
2022-09-02T14:28:35.570Z,99677.20
2022-09-02T14:31:38.304Z,99673.80
2022-09-02T14:34:42.776Z,99672.30
2022-09-02T14:37:52.217Z,99675.46
2022-09-02T14:41:05.738Z,99680.09
2022-09-02T14:44:13.631Z,99680.13
2022-09-02T14:47:17.025Z,99680.47
2022-09-02T14:50:26.078Z,99681.52
2022-09-02T14:53:27.853Z,99670.77
2022-09-02T14:56:45.372Z,99669.27
2022-09-02T14:59:48.722Z,99670.03
2022-09-02T15:02:56.506Z,99668.98
2022-09-02T15:05:58.273Z,99666.63
2022-09-02T15:09:00.095Z,99668.17
2022-09-02T15:12:02.908Z,99669.15
2022-09-02T15:15:05.310Z,99668.20
2022-09-02T15:18:09.236Z,99667.42
2022-09-02T15:21:11.416Z,99668.84
2022-09-02T15:24:13.301Z,99667.93
2022-09-02T15:27:15.767Z,99660.41
2022-09-02T15:30:20.777Z,99661.17
2022-09-02T15:33:22.743Z,99659.33
2022-09-02T15:36:26.303Z,99666.94
2022-09-02T15:39:28.441Z,99667.45
2022-09-02T15:42:30.416Z,99670.27
2022-09-02T15:45:32.168Z,99665.45
2022-09-02T15:48:33.929Z,99667.89
2022-09-02T15:51:36.408Z,99665.93
2022-09-02T15:54:38.204Z,99667.33
2022-09-02T15:57:41.282Z,99665.81
2022-09-02T16:00:43.833Z,99670.85
2022-09-02T16:03:45.980Z,99669.44
2022-09-02T16:06:49.231Z,99667.27
2022-09-02T16:09:50.953Z,99668.93
2022-09-02T16:12:52.707Z,99664.36
2022-09-02T16:16:01.084Z,99661.66
2022-09-02T16:19:05.298Z,99664.77
2022-09-02T16:22:07.010Z,99663.00
2022-09-02T16:25:09.284Z,99661.95
2022-09-02T16:28:12.588Z,99659.86
2022-09-02T16:31:20.149Z,99656.82
2022-09-02T16:34:22.509Z,99656.67
2022-09-02T16:37:24.257Z,99658.39
2022-09-02T16:40:26.145Z,99659.34
2022-09-02T16:43:28.024Z,99660.69
2022-09-02T16:46:30.340Z,99657.36
2022-09-02T16:49:32.168Z,99658.63
2022-09-02T16:52:35.253Z,99652.84
2022-09-02T16:55:41.766Z,99654.13
2022-09-02T16:58:43.766Z,99655.69
2022-09-02T17:01:45.489Z,99652.98
2022-09-02T17:04:47.421Z,99653.55
2022-09-02T17:07:49.205Z,99651.70
2022-09-02T17:10:51.058Z,99648.26
2022-09-02T17:14:01.994Z,99652.87
2022-09-02T17:17:03.839Z,99653.67
2022-09-02T17:20:06.360Z,99658.25
2022-09-02T17:23:08.768Z,99656.03
2022-09-02T17:26:10.879Z,99657.69
2022-09-02T17:29:47.042Z,99661.33
2022-09-02T17:32:40.739Z,99665.66
2022-09-02T17:35:42.497Z,99670.25
2022-09-02T17:38:45.137Z,99668.83
2022-09-02T17:41:57.584Z,99667.14
2022-09-02T17:44:59.485Z,99671.16
2022-09-02T17:48:19.261Z,99673.29
2022-09-02T17:51:24.321Z,99676.89
2022-09-02T17:54:30.715Z,99682.50
2022-09-02T17:58:09.775Z,99681.81
2022-09-02T18:01:19.333Z,99684.11
2022-09-02T18:04:43.133Z,99685.95
2022-09-02T18:07:50.952Z,99687.38
2022-09-02T18:10:58.125Z,99688.30
2022-09-02T18:14:03.034Z,99692.96
2022-09-02T18:17:27.792Z,99691.46
2022-09-02T18:20:43.540Z,99693.97
2022-09-02T18:24:14.581Z,99696.45
2022-09-02T18:27:30.494Z,99694.64
2022-09-02T18:30:49.120Z,99693.70
2022-09-02T18:34:05.934Z,99694.80
2022-09-02T18:37:45.065Z,99692.61
2022-09-02T18:41:13.671Z,99698.86
2022-09-02T18:44:43.334Z,99697.54
2022-09-02T18:47:49.875Z,99698.35
2022-09-02T18:50:57.606Z,99693.98
2022-09-02T18:54:04.886Z,99694.16
2022-09-02T18:57:07.821Z,99693.73
2022-09-02T19:00:12.720Z,99693.69
2022-09-02T19:03:14.503Z,99693.54
2022-09-02T19:06:19.878Z,99694.77
2022-09-02T19:09:24.585Z,99694.27
2022-09-02T19:12:31.860Z,99692.30
2022-09-02T19:15:33.559Z,99692.56
2022-09-02T19:18:38.635Z,99699.11
2022-09-02T19:21:48.673Z,99699.77
2022-09-02T19:24:58.099Z,99700.08
2022-09-02T19:28:02.650Z,99701.04
2022-09-02T19:31:04.713Z,99699.67
2022-09-02T19:34:08.306Z,99701.86
2022-09-02T19:37:12.298Z,99704.59
2022-09-02T19:40:18.990Z,99708.54
2022-09-02T19:43:21.644Z,99715.24
2022-09-02T19:46:57.875Z,99711.79
2022-09-02T19:49:45.290Z,99714.48
2022-09-02T19:52:49.484Z,99711.36
2022-09-02T19:55:51.234Z,99713.45
2022-09-02T19:58:52.924Z,99715.91
2022-09-02T20:01:54.744Z,99713.63
2022-09-02T20:04:56.538Z,99715.90
2022-09-02T20:07:58.546Z,99713.59
2022-09-02T20:11:02.942Z,99720.05
2022-09-02T20:14:04.720Z,99723.30
2022-09-02T20:17:11.279Z,99721.39
2022-09-02T20:20:17.283Z,99720.59
2022-09-02T20:23:20.886Z,99720.81
2022-09-02T20:26:31.184Z,99718.95
2022-09-02T20:30:00.462Z,99718.98
2022-09-02T20:33:22.540Z,99718.27
2022-09-02T20:36:29.814Z,99716.44
2022-09-02T20:39:51.200Z,99716.16
2022-09-02T20:43:03.510Z,99717.52
2022-09-02T20:46:11.318Z,99723.82
2022-09-02T20:49:35.937Z,99722.25
2022-09-02T20:53:03.638Z,99721.21
2022-09-02T20:56:12.079Z,99723.66
2022-09-02T20:59:31.284Z,99721.18
2022-09-02T21:02:40.645Z,99720.29
2022-09-02T21:05:48.848Z,99721.80
2022-09-02T21:08:59.790Z,99724.19
2022-09-02T21:12:10.442Z,99719.66
2022-09-02T21:15:26.310Z,99717.48
2022-09-02T21:18:58.782Z,99723.27
2022-09-02T21:22:10.534Z,99723.96
2022-09-02T21:25:38.183Z,99724.54
2022-09-02T21:28:48.721Z,99730.52
2022-09-02T21:32:00.967Z,99723.41
2022-09-02T21:35:12.128Z,99724.40
2022-09-02T21:38:24.896Z,99724.47
2022-09-02T21:41:43.034Z,99724.42
2022-09-02T21:45:20.225Z,99728.42
2022-09-02T21:48:51.824Z,99725.86
2022-09-02T21:52:05.071Z,99725.27
2022-09-02T21:55:27.013Z,99727.95
2022-09-02T21:58:40.844Z,99728.08
2022-09-02T22:01:55.881Z,99732.56
2022-09-02T22:05:03.058Z,99734.52
2022-09-02T22:08:31.722Z,99736.70
2022-09-02T22:11:47.842Z,99740.86
2022-09-02T22:15:01.933Z,99738.97
2022-09-02T22:18:17.673Z,99734.20
2022-09-02T22:21:48.607Z,99742.02
2022-09-02T22:24:52.149Z,99736.33
2022-09-02T22:28:05.478Z,99730.44
2022-09-02T22:31:11.209Z,99725.05
2022-09-02T22:34:16.340Z,99729.80
2022-09-02T22:37:22.407Z,99725.58
2022-09-02T22:40:26.219Z,99724.77
2022-09-02T22:43:36.082Z,99719.13
2022-09-02T22:47:14.102Z,99713.55
2022-09-02T22:50:39.452Z,99711.44
2022-09-02T22:53:41.233Z,99712.25
2022-09-02T22:56:53.977Z,99710.33
2022-09-02T23:00:10.758Z,99703.88
2022-09-02T23:03:39.283Z,99705.14
2022-09-02T23:06:41.044Z,99703.17
2022-09-02T23:09:43.412Z,99703.27
2022-09-02T23:13:02.601Z,99707.67
2022-09-02T23:16:35.380Z,99708.32
2022-09-02T23:20:31.406Z,99713.69
2022-09-02T23:23:39.461Z,99716.23
2022-09-02T23:27:10.010Z,99716.33
2022-09-02T23:30:12.200Z,99713.66
2022-09-02T23:33:58.092Z,99714.42
2022-09-02T23:37:36.514Z,99719.87
2022-09-02T23:40:44.272Z,99723.68
2022-09-02T23:43:46.184Z,99719.20
2022-09-02T23:47:13.004Z,99715.05
2022-09-02T23:50:34.568Z,99715.33
2022-09-02T23:53:55.319Z,99710.65
2022-09-02T23:57:44.584Z,99706.06
